sensor_id;sensor_type;location;lat;lon;timestamp;temperature;humidity
3566;DHT22;1797;51.844;7.684;2022-10-17T00:00:40;13.00;99.90
3566;DHT22;1797;51.844;7.684;2022-10-17T00:03:06;13.00;99.90
3566;DHT22;1797;51.844;7.684;2022-10-17T00:05:32;13.00;99.90
3566;DHT22;1797;51.844;7.684;2022-10-17T00:07:57;12.90;99.90
3566;DHT22;1797;51.844;7.684;2022-10-17T00:10:23;12.90;99.90
3566;DHT22;1797;51.844;7.684;2022-10-17T00:12:50;12.90;99.90
3566;DHT22;1797;51.844;7.684;2022-10-17T00:15:17;12.90;99.90
3566;DHT22;1797;51.844;7.684;2022-10-17T00:17:43;12.90;99.90
3566;DHT22;1797;51.844;7.684;2022-10-17T00:20:10;12.80;99.90
3566;DHT22;1797;51.844;7.684;2022-10-17T00:22:36;12.80;99.90
3566;DHT22;1797;51.844;7.684;2022-10-17T00:25:01;12.80;99.90
3566;DHT22;1797;51.844;7.684;2022-10-17T00:27:27;12.70;99.90
3566;DHT22;1797;51.844;7.684;2022-10-17T00:29:52;12.70;99.90
3566;DHT22;1797;51.844;7.684;2022-10-17T00:32:19;12.70;99.90
3566;DHT22;1797;51.844;7.684;2022-10-17T00:34:44;12.70;99.90
3566;DHT22;1797;51.844;7.684;2022-10-17T00:37:10;12.60;99.90
3566;DHT22;1797;51.844;7.684;2022-10-17T00:39:37;12.60;99.90
3566;DHT22;1797;51.844;7.684;2022-10-17T00:42:02;12.60;99.90
3566;DHT22;1797;51.844;7.684;2022-10-17T00:46:54;12.60;99.90
3566;DHT22;1797;51.844;7.684;2022-10-17T00:49:22;12.60;99.90
3566;DHT22;1797;51.844;7.684;2022-10-17T00:51:55;12.60;99.90
3566;DHT22;1797;51.844;7.684;2022-10-17T00:54:26;12.50;99.90
3566;DHT22;1797;51.844;7.684;2022-10-17T00:56:53;12.50;99.90
3566;DHT22;1797;51.844;7.684;2022-10-17T00:59:20;12.50;99.90
3566;DHT22;1797;51.844;7.684;2022-10-17T01:02:05;12.50;99.90
3566;DHT22;1797;51.844;7.684;2022-10-17T01:04:31;12.50;99.90
3566;DHT22;1797;51.844;7.684;2022-10-17T01:06:57;12.40;99.90
3566;DHT22;1797;51.844;7.684;2022-10-17T01:09:23;12.40;99.90
3566;DHT22;1797;51.844;7.684;2022-10-17T01:14:49;12.40;99.90
3566;DHT22;1797;51.844;7.684;2022-10-17T01:17:28;12.40;99.90
3566;DHT22;1797;51.844;7.684;2022-10-17T01:22:49;12.40;99.90
3566;DHT22;1797;51.844;7.684;2022-10-17T01:31:18;12.40;99.90
3566;DHT22;1797;51.844;7.684;2022-10-17T01:34:00;12.40;99.90
3566;DHT22;1797;51.844;7.684;2022-10-17T01:36:37;12.40;99.90
3566;DHT22;1797;51.844;7.684;2022-10-17T01:39:16;12.40;99.90
3566;DHT22;1797;51.844;7.684;2022-10-17T01:47:29;12.30;99.90
3566;DHT22;1797;51.844;7.684;2022-10-17T01:50:00;12.30;99.90
3566;DHT22;1797;51.844;7.684;2022-10-17T01:52:36;12.30;99.90
3566;DHT22;1797;51.844;7.684;2022-10-17T01:55:19;12.30;99.90
3566;DHT22;1797;51.844;7.684;2022-10-17T01:57:53;12.30;99.90
3566;DHT22;1797;51.844;7.684;2022-10-17T02:00:24;12.30;99.90
3566;DHT22;1797;51.844;7.684;2022-10-17T02:02:59;12.30;99.90
3566;DHT22;1797;51.844;7.684;2022-10-17T02:05:31;12.20;99.90
3566;DHT22;1797;51.844;7.684;2022-10-17T02:07:57;12.30;99.90
3566;DHT22;1797;51.844;7.684;2022-10-17T02:10:51;12.20;99.90
3566;DHT22;1797;51.844;7.684;2022-10-17T02:13:33;12.20;99.90
3566;DHT22;1797;51.844;7.684;2022-10-17T02:24:56;12.20;99.90
3566;DHT22;1797;51.844;7.684;2022-10-17T02:35:42;12.10;99.90
3566;DHT22;1797;51.844;7.684;2022-10-17T02:38:11;12.10;99.90
3566;DHT22;1797;51.844;7.684;2022-10-17T02:40:39;12.10;99.90
3566;DHT22;1797;51.844;7.684;2022-10-17T02:43:05;12.10;99.90
3566;DHT22;1797;51.844;7.684;2022-10-17T02:45:32;12.10;99.90
3566;DHT22;1797;51.844;7.684;2022-10-17T02:51:01;12.10;99.90
3566;DHT22;1797;51.844;7.684;2022-10-17T02:54:12;12.10;99.90
3566;DHT22;1797;51.844;7.684;2022-10-17T02:56:47;12.10;99.90
3566;DHT22;1797;51.844;7.684;2022-10-17T02:59:16;12.10;99.90
3566;DHT22;1797;51.844;7.684;2022-10-17T03:01:44;12.10;99.90
3566;DHT22;1797;51.844;7.684;2022-10-17T03:04:12;12.10;99.90
3566;DHT22;1797;51.844;7.684;2022-10-17T03:06:39;12.10;99.90
3566;DHT22;1797;51.844;7.684;2022-10-17T03:09:06;12.10;99.90
3566;DHT22;1797;51.844;7.684;2022-10-17T03:11:31;12.10;99.90
3566;DHT22;1797;51.844;7.684;2022-10-17T03:13:57;12.10;99.90
3566;DHT22;1797;51.844;7.684;2022-10-17T03:16:22;12.10;99.90
3566;DHT22;1797;51.844;7.684;2022-10-17T03:18:48;12.10;99.90
3566;DHT22;1797;51.844;7.684;2022-10-17T03:21:13;12.10;99.90
3566;DHT22;1797;51.844;7.684;2022-10-17T03:23:39;12.10;99.90
3566;DHT22;1797;51.844;7.684;2022-10-17T03:26:05;12.10;99.90
3566;DHT22;1797;51.844;7.684;2022-10-17T03:28:31;12.10;99.90
3566;DHT22;1797;51.844;7.684;2022-10-17T03:30:57;12.10;99.90
3566;DHT22;1797;51.844;7.684;2022-10-17T03:33:23;12.10;99.90
3566;DHT22;1797;51.844;7.684;2022-10-17T03:35:48;12.10;99.90
3566;DHT22;1797;51.844;7.684;2022-10-17T03:38:14;12.10;99.90
3566;DHT22;1797;51.844;7.684;2022-10-17T03:40:39;12.20;99.90
3566;DHT22;1797;51.844;7.684;2022-10-17T03:43:05;12.20;99.90
3566;DHT22;1797;51.844;7.684;2022-10-17T03:45:31;12.20;99.90
3566;DHT22;1797;51.844;7.684;2022-10-17T03:47:58;12.20;99.90
3566;DHT22;1797;51.844;7.684;2022-10-17T03:50:23;12.20;99.90
3566;DHT22;1797;51.844;7.684;2022-10-17T03:52:49;12.20;99.90
3566;DHT22;1797;51.844;7.684;2022-10-17T03:55:15;12.20;99.90
3566;DHT22;1797;51.844;7.684;2022-10-17T03:57:41;12.20;99.90
3566;DHT22;1797;51.844;7.684;2022-10-17T04:00:07;12.20;99.90
3566;DHT22;1797;51.844;7.684;2022-10-17T04:02:33;12.20;99.90
3566;DHT22;1797;51.844;7.684;2022-10-17T04:04:59;12.20;99.90
3566;DHT22;1797;51.844;7.684;2022-10-17T04:07:25;12.20;99.90
3566;DHT22;1797;51.844;7.684;2022-10-17T04:09:51;12.20;99.90
3566;DHT22;1797;51.844;7.684;2022-10-17T04:12:16;12.20;99.90
3566;DHT22;1797;51.844;7.684;2022-10-17T04:14:42;12.20;99.90
3566;DHT22;1797;51.844;7.684;2022-10-17T04:17:08;12.20;99.90
3566;DHT22;1797;51.844;7.684;2022-10-17T04:19:33;12.20;99.90
3566;DHT22;1797;51.844;7.684;2022-10-17T04:21:59;12.20;99.90
3566;DHT22;1797;51.844;7.684;2022-10-17T04:24:24;12.20;99.90
3566;DHT22;1797;51.844;7.684;2022-10-17T04:26:50;12.20;99.90
3566;DHT22;1797;51.844;7.684;2022-10-17T04:29:16;12.20;99.90
3566;DHT22;1797;51.844;7.684;2022-10-17T04:31:42;12.20;99.90
3566;DHT22;1797;51.844;7.684;2022-10-17T04:34:08;12.20;99.90
3566;DHT22;1797;51.844;7.684;2022-10-17T04:36:33;12.20;99.90
3566;DHT22;1797;51.844;7.684;2022-10-17T04:39:00;12.30;99.90
3566;DHT22;1797;51.844;7.684;2022-10-17T04:41:27;12.20;99.90
3566;DHT22;1797;51.844;7.684;2022-10-17T04:43:53;12.20;99.90
3566;DHT22;1797;51.844;7.684;2022-10-17T04:46:19;12.30;99.90
3566;DHT22;1797;51.844;7.684;2022-10-17T04:48:45;12.30;99.90
3566;DHT22;1797;51.844;7.684;2022-10-17T04:51:13;12.30;99.90
3566;DHT22;1797;51.844;7.684;2022-10-17T04:53:39;12.30;99.90
3566;DHT22;1797;51.844;7.684;2022-10-17T04:56:17;12.30;99.90
3566;DHT22;1797;51.844;7.684;2022-10-17T04:58:43;12.30;99.90
3566;DHT22;1797;51.844;7.684;2022-10-17T05:01:12;12.30;99.90
3566;DHT22;1797;51.844;7.684;2022-10-17T05:03:38;12.20;99.90
3566;DHT22;1797;51.844;7.684;2022-10-17T05:06:10;12.20;99.90
3566;DHT22;1797;51.844;7.684;2022-10-17T05:08:36;12.20;99.90
3566;DHT22;1797;51.844;7.684;2022-10-17T05:11:02;12.10;99.90
3566;DHT22;1797;51.844;7.684;2022-10-17T05:13:28;12.10;99.90
3566;DHT22;1797;51.844;7.684;2022-10-17T05:16:00;12.10;99.90
3566;DHT22;1797;51.844;7.684;2022-10-17T05:18:27;12.10;99.90
3566;DHT22;1797;51.844;7.684;2022-10-17T05:20:53;12.10;99.90
3566;DHT22;1797;51.844;7.684;2022-10-17T05:23:19;12.20;99.90
3566;DHT22;1797;51.844;7.684;2022-10-17T05:25:44;12.10;99.90
3566;DHT22;1797;51.844;7.684;2022-10-17T05:28:10;12.20;99.90
3566;DHT22;1797;51.844;7.684;2022-10-17T05:30:35;12.20;99.90
3566;DHT22;1797;51.844;7.684;2022-10-17T05:33:01;12.20;99.90
3566;DHT22;1797;51.844;7.684;2022-10-17T05:35:27;12.20;99.90
3566;DHT22;1797;51.844;7.684;2022-10-17T05:37:53;12.20;99.90
3566;DHT22;1797;51.844;7.684;2022-10-17T05:40:18;12.20;99.90
3566;DHT22;1797;51.844;7.684;2022-10-17T05:42:47;12.20;99.90
3566;DHT22;1797;51.844;7.684;2022-10-17T05:45:14;12.20;99.90
3566;DHT22;1797;51.844;7.684;2022-10-17T05:47:40;12.20;99.90
3566;DHT22;1797;51.844;7.684;2022-10-17T05:50:07;12.20;99.90
3566;DHT22;1797;51.844;7.684;2022-10-17T05:52:32;12.20;99.90
3566;DHT22;1797;51.844;7.684;2022-10-17T05:54:58;12.20;99.90
3566;DHT22;1797;51.844;7.684;2022-10-17T05:57:25;12.20;99.90
3566;DHT22;1797;51.844;7.684;2022-10-17T05:59:50;12.20;99.90
3566;DHT22;1797;51.844;7.684;2022-10-17T06:02:16;12.30;99.90
3566;DHT22;1797;51.844;7.684;2022-10-17T06:04:41;12.20;99.90
3566;DHT22;1797;51.844;7.684;2022-10-17T06:07:11;12.30;99.90
3566;DHT22;1797;51.844;7.684;2022-10-17T06:09:37;12.30;99.90
3566;DHT22;1797;51.844;7.684;2022-10-17T06:12:03;12.30;99.90
3566;DHT22;1797;51.844;7.684;2022-10-17T06:14:28;12.30;99.90
3566;DHT22;1797;51.844;7.684;2022-10-17T06:16:54;12.30;99.90
3566;DHT22;1797;51.844;7.684;2022-10-17T06:19:19;12.30;99.90
3566;DHT22;1797;51.844;7.684;2022-10-17T06:21:45;12.30;99.90
3566;DHT22;1797;51.844;7.684;2022-10-17T06:24:10;12.30;99.90
3566;DHT22;1797;51.844;7.684;2022-10-17T06:26:36;12.40;99.90
3566;DHT22;1797;51.844;7.684;2022-10-17T06:29:01;12.40;99.90
3566;DHT22;1797;51.844;7.684;2022-10-17T06:31:27;12.40;99.90
3566;DHT22;1797;51.844;7.684;2022-10-17T06:33:53;12.50;99.90
3566;DHT22;1797;51.844;7.684;2022-10-17T06:36:18;12.50;99.90
3566;DHT22;1797;51.844;7.684;2022-10-17T06:38:44;12.50;99.90
3566;DHT22;1797;51.844;7.684;2022-10-17T06:41:14;12.60;99.90
3566;DHT22;1797;51.844;7.684;2022-10-17T06:43:42;12.60;99.90
3566;DHT22;1797;51.844;7.684;2022-10-17T06:46:09;12.70;99.90
3566;DHT22;1797;51.844;7.684;2022-10-17T06:48:35;12.70;99.90
3566;DHT22;1797;51.844;7.684;2022-10-17T06:51:02;12.70;99.90
3566;DHT22;1797;51.844;7.684;2022-10-17T06:53:30;12.70;99.90
3566;DHT22;1797;51.844;7.684;2022-10-17T06:55:56;12.80;99.90
3566;DHT22;1797;51.844;7.684;2022-10-17T06:58:27;12.90;99.90
3566;DHT22;1797;51.844;7.684;2022-10-17T07:01:07;12.90;99.90
3566;DHT22;1797;51.844;7.684;2022-10-17T07:03:33;13.00;99.90
3566;DHT22;1797;51.844;7.684;2022-10-17T07:05:58;13.00;99.90
3566;DHT22;1797;51.844;7.684;2022-10-17T07:08:24;13.10;99.90
3566;DHT22;1797;51.844;7.684;2022-10-17T07:10:50;13.20;99.90
3566;DHT22;1797;51.844;7.684;2022-10-17T07:13:17;13.20;99.90
3566;DHT22;1797;51.844;7.684;2022-10-17T07:15:43;13.30;99.90
3566;DHT22;1797;51.844;7.684;2022-10-17T07:18:09;13.40;99.90
3566;DHT22;1797;51.844;7.684;2022-10-17T07:20:35;13.40;99.90
3566;DHT22;1797;51.844;7.684;2022-10-17T07:23:01;13.60;99.90
3566;DHT22;1797;51.844;7.684;2022-10-17T07:25:26;13.70;99.90
3566;DHT22;1797;51.844;7.684;2022-10-17T07:27:53;13.90;99.90
3566;DHT22;1797;51.844;7.684;2022-10-17T07:30:19;14.20;99.90
3566;DHT22;1797;51.844;7.684;2022-10-17T07:32:44;14.40;99.90
3566;DHT22;1797;51.844;7.684;2022-10-17T07:35:11;14.60;99.90
3566;DHT22;1797;51.844;7.684;2022-10-17T07:37:37;14.80;99.90
3566;DHT22;1797;51.844;7.684;2022-10-17T07:40:04;14.90;99.90
3566;DHT22;1797;51.844;7.684;2022-10-17T07:42:31;15.00;99.90
3566;DHT22;1797;51.844;7.684;2022-10-17T07:44:56;15.00;99.90
3566;DHT22;1797;51.844;7.684;2022-10-17T07:47:22;15.00;99.90
3566;DHT22;1797;51.844;7.684;2022-10-17T07:49:47;15.10;99.90
3566;DHT22;1797;51.844;7.684;2022-10-17T07:52:14;15.20;99.90
3566;DHT22;1797;51.844;7.684;2022-10-17T07:54:40;15.30;99.90
3566;DHT22;1797;51.844;7.684;2022-10-17T07:57:06;15.30;99.90
3566;DHT22;1797;51.844;7.684;2022-10-17T07:59:33;15.50;99.90
3566;DHT22;1797;51.844;7.684;2022-10-17T08:01:59;15.50;99.90
3566;DHT22;1797;51.844;7.684;2022-10-17T08:04:25;15.60;99.90
3566;DHT22;1797;51.844;7.684;2022-10-17T08:06:51;15.80;99.90
3566;DHT22;1797;51.844;7.684;2022-10-17T08:09:17;15.90;99.90
3566;DHT22;1797;51.844;7.684;2022-10-17T08:11:42;16.10;99.90
3566;DHT22;1797;51.844;7.684;2022-10-17T08:14:09;16.20;99.90
3566;DHT22;1797;51.844;7.684;2022-10-17T08:16:35;16.40;99.90
3566;DHT22;1797;51.844;7.684;2022-10-17T08:19:01;16.60;99.90
3566;DHT22;1797;51.844;7.684;2022-10-17T08:21:27;16.80;99.90
3566;DHT22;1797;51.844;7.684;2022-10-17T08:23:53;17.00;99.90
3566;DHT22;1797;51.844;7.684;2022-10-17T08:26:18;17.10;99.90
3566;DHT22;1797;51.844;7.684;2022-10-17T08:28:44;17.30;99.90
3566;DHT22;1797;51.844;7.684;2022-10-17T08:31:16;17.30;99.90
3566;DHT22;1797;51.844;7.684;2022-10-17T08:33:46;17.40;99.90
3566;DHT22;1797;51.844;7.684;2022-10-17T08:36:14;17.50;99.90
3566;DHT22;1797;51.844;7.684;2022-10-17T08:38:41;17.60;99.90
3566;DHT22;1797;51.844;7.684;2022-10-17T08:47:46;17.90;99.90
3566;DHT22;1797;51.844;7.684;2022-10-17T08:55:46;18.60;99.90
3566;DHT22;1797;51.844;7.684;2022-10-17T08:58:33;18.90;99.90
3566;DHT22;1797;51.844;7.684;2022-10-17T09:04:05;19.40;99.90
3566;DHT22;1797;51.844;7.684;2022-10-17T09:06:38;19.70;99.90
3566;DHT22;1797;51.844;7.684;2022-10-17T09:09:09;19.90;99.90
3566;DHT22;1797;51.844;7.684;2022-10-17T09:17:52;20.50;99.90
3566;DHT22;1797;51.844;7.684;2022-10-17T09:20:24;20.60;99.90
3566;DHT22;1797;51.844;7.684;2022-10-17T09:23:15;20.70;99.90
3566;DHT22;1797;51.844;7.684;2022-10-17T09:25:47;20.60;1.00
3566;DHT22;1797;51.844;7.684;2022-10-17T09:28:29;20.50;1.00
3566;DHT22;1797;51.844;7.684;2022-10-17T09:31:11;20.50;1.00
3566;DHT22;1797;51.844;7.684;2022-10-17T09:33:44;20.50;99.90
3566;DHT22;1797;51.844;7.684;2022-10-17T09:36:16;20.40;99.90
3566;DHT22;1797;51.844;7.684;2022-10-17T09:38:48;20.30;1.00
3566;DHT22;1797;51.844;7.684;2022-10-17T09:41:18;20.30;99.90
3566;DHT22;1797;51.844;7.684;2022-10-17T09:43:44;20.30;1.00
3566;DHT22;1797;51.844;7.684;2022-10-17T09:46:20;20.20;99.90
3566;DHT22;1797;51.844;7.684;2022-10-17T09:48:56;20.20;1.00
3566;DHT22;1797;51.844;7.684;2022-10-17T09:51:26;20.10;1.00
3566;DHT22;1797;51.844;7.684;2022-10-17T09:54:02;20.10;99.90
3566;DHT22;1797;51.844;7.684;2022-10-17T09:56:28;20.10;11.10
3566;DHT22;1797;51.844;7.684;2022-10-17T09:58:57;20.10;1.00
3566;DHT22;1797;51.844;7.684;2022-10-17T10:01:26;20.20;1.00
3566;DHT22;1797;51.844;7.684;2022-10-17T10:04:13;20.30;1.00
3566;DHT22;1797;51.844;7.684;2022-10-17T10:06:40;20.50;99.90
3566;DHT22;1797;51.844;7.684;2022-10-17T10:09:21;20.70;99.90
3566;DHT22;1797;51.844;7.684;2022-10-17T10:11:54;20.80;1.00
3566;DHT22;1797;51.844;7.684;2022-10-17T10:14:30;20.90;1.00
3566;DHT22;1797;51.844;7.684;2022-10-17T10:17:00;21.10;99.90
3566;DHT22;1797;51.844;7.684;2022-10-17T10:19:32;21.10;1.00
3566;DHT22;1797;51.844;7.684;2022-10-17T10:21:59;21.00;1.00
3566;DHT22;1797;51.844;7.684;2022-10-17T10:24:25;21.10;19.80
3566;DHT22;1797;51.844;7.684;2022-10-17T10:26:53;21.10;1.00
3566;DHT22;1797;51.844;7.684;2022-10-17T10:29:32;21.10;1.00
3566;DHT22;1797;51.844;7.684;2022-10-17T10:32:20;21.10;1.00
3566;DHT22;1797;51.844;7.684;2022-10-17T10:37:39;21.10;1.00
3566;DHT22;1797;51.844;7.684;2022-10-17T10:40:14;21.10;1.00
3566;DHT22;1797;51.844;7.684;2022-10-17T10:42:40;21.00;1.00
3566;DHT22;1797;51.844;7.684;2022-10-17T10:45:20;21.10;25.70
3566;DHT22;1797;51.844;7.684;2022-10-17T10:47:58;21.10;1.00
3566;DHT22;1797;51.844;7.684;2022-10-17T10:50:39;21.00;1.00
3566;DHT22;1797;51.844;7.684;2022-10-17T10:56:27;21.10;1.00
3566;DHT22;1797;51.844;7.684;2022-10-17T11:01:52;21.00;1.00
3566;DHT22;1797;51.844;7.684;2022-10-17T11:07:30;20.90;99.90
3566;DHT22;1797;51.844;7.684;2022-10-17T11:10:31;20.80;1.00
3566;DHT22;1797;51.844;7.684;2022-10-17T11:13:13;20.80;1.00
3566;DHT22;1797;51.844;7.684;2022-10-17T11:21:03;20.80;83.00
3566;DHT22;1797;51.844;7.684;2022-10-17T11:23:43;20.90;1.00
3566;DHT22;1797;51.844;7.684;2022-10-17T11:26:21;20.80;1.00
3566;DHT22;1797;51.844;7.684;2022-10-17T11:28:52;20.80;1.00
3566;DHT22;1797;51.844;7.684;2022-10-17T11:31:20;20.80;1.00
3566;DHT22;1797;51.844;7.684;2022-10-17T11:36:16;21.40;99.90
3566;DHT22;1797;51.844;7.684;2022-10-17T11:38:48;21.60;1.00
3566;DHT22;1797;51.844;7.684;2022-10-17T11:41:25;21.70;99.90
3566;DHT22;1797;51.844;7.684;2022-10-17T11:43:56;21.60;99.90
3566;DHT22;1797;51.844;7.684;2022-10-17T11:46:25;21.40;99.90
3566;DHT22;1797;51.844;7.684;2022-10-17T11:49:15;21.20;1.00
3566;DHT22;1797;51.844;7.684;2022-10-17T11:51:46;21.20;1.00
3566;DHT22;1797;51.844;7.684;2022-10-17T12:02:48;21.40;1.00
3566;DHT22;1797;51.844;7.684;2022-10-17T12:05:24;21.40;1.00
3566;DHT22;1797;51.844;7.684;2022-10-17T12:10:50;21.30;1.00
3566;DHT22;1797;51.844;7.684;2022-10-17T12:15:53;21.30;1.00
3566;DHT22;1797;51.844;7.684;2022-10-17T12:18:19;21.50;1.00
3566;DHT22;1797;51.844;7.684;2022-10-17T12:20:56;21.50;99.90
3566;DHT22;1797;51.844;7.684;2022-10-17T12:23:31;21.60;99.90
3566;DHT22;1797;51.844;7.684;2022-10-17T12:26:02;21.70;99.90
3566;DHT22;1797;51.844;7.684;2022-10-17T12:31:20;21.80;99.90
3566;DHT22;1797;51.844;7.684;2022-10-17T12:33:55;21.70;57.30
3566;DHT22;1797;51.844;7.684;2022-10-17T12:49:35;21.80;1.00
3566;DHT22;1797;51.844;7.684;2022-10-17T12:52:26;21.70;1.00
3566;DHT22;1797;51.844;7.684;2022-10-17T12:59:59;21.20;99.90
3566;DHT22;1797;51.844;7.684;2022-10-17T13:02:27;21.10;1.00
3566;DHT22;1797;51.844;7.684;2022-10-17T13:05:07;21.10;1.00
3566;DHT22;1797;51.844;7.684;2022-10-17T13:07:35;21.00;1.00
3566;DHT22;1797;51.844;7.684;2022-10-17T13:10:05;20.90;99.90
3566;DHT22;1797;51.844;7.684;2022-10-17T13:12:33;20.90;99.90
3566;DHT22;1797;51.844;7.684;2022-10-17T13:15:03;20.90;99.90
3566;DHT22;1797;51.844;7.684;2022-10-17T13:17:31;20.90;1.00
3566;DHT22;1797;51.844;7.684;2022-10-17T13:19:56;20.80;1.00
3566;DHT22;1797;51.844;7.684;2022-10-17T13:22:31;20.80;99.90
3566;DHT22;1797;51.844;7.684;2022-10-17T13:25:15;20.80;1.00
3566;DHT22;1797;51.844;7.684;2022-10-17T13:27:41;20.50;1.00
3566;DHT22;1797;51.844;7.684;2022-10-17T13:30:29;20.50;99.90
3566;DHT22;1797;51.844;7.684;2022-10-17T13:32:55;20.40;99.90
3566;DHT22;1797;51.844;7.684;2022-10-17T13:40:19;20.10;51.60
3566;DHT22;1797;51.844;7.684;2022-10-17T13:42:46;20.00;1.00
3566;DHT22;1797;51.844;7.684;2022-10-17T13:45:18;20.00;1.00
3566;DHT22;1797;51.844;7.684;2022-10-17T13:47:45;20.00;63.60
3566;DHT22;1797;51.844;7.684;2022-10-17T13:50:37;20.00;79.70
3566;DHT22;1797;51.844;7.684;2022-10-17T13:53:34;20.10;1.00
3566;DHT22;1797;51.844;7.684;2022-10-17T13:56:05;20.20;99.90
3566;DHT22;1797;51.844;7.684;2022-10-17T13:58:42;20.20;1.00
3566;DHT22;1797;51.844;7.684;2022-10-17T14:01:09;20.20;1.00
3566;DHT22;1797;51.844;7.684;2022-10-17T14:03:35;20.30;1.00
3566;DHT22;1797;51.844;7.684;2022-10-17T14:08:30;20.30;1.00
3566;DHT22;1797;51.844;7.684;2022-10-17T14:10:56;20.30;1.00
3566;DHT22;1797;51.844;7.684;2022-10-17T14:13:30;20.20;99.90
3566;DHT22;1797;51.844;7.684;2022-10-17T14:16:01;20.10;1.00
3566;DHT22;1797;51.844;7.684;2022-10-17T14:18:30;20.10;1.00
3566;DHT22;1797;51.844;7.684;2022-10-17T14:20:57;20.00;99.90
3566;DHT22;1797;51.844;7.684;2022-10-17T14:23:40;20.00;99.90
3566;DHT22;1797;51.844;7.684;2022-10-17T14:28:43;19.80;99.90
3566;DHT22;1797;51.844;7.684;2022-10-17T14:31:18;19.80;1.00
3566;DHT22;1797;51.844;7.684;2022-10-17T14:33:47;19.70;1.00
3566;DHT22;1797;51.844;7.684;2022-10-17T14:36:14;19.70;99.90
3566;DHT22;1797;51.844;7.684;2022-10-17T14:38:45;19.60;1.00
3566;DHT22;1797;51.844;7.684;2022-10-17T14:43:40;19.60;1.00
3566;DHT22;1797;51.844;7.684;2022-10-17T14:46:06;19.50;1.00
3566;DHT22;1797;51.844;7.684;2022-10-17T14:48:36;19.40;1.00
3566;DHT22;1797;51.844;7.684;2022-10-17T14:51:27;19.30;1.00
3566;DHT22;1797;51.844;7.684;2022-10-17T14:56:41;19.30;1.00
3566;DHT22;1797;51.844;7.684;2022-10-17T14:59:07;19.20;19.20
3566;DHT22;1797;51.844;7.684;2022-10-17T15:01:35;19.20;3.60
3566;DHT22;1797;51.844;7.684;2022-10-17T15:04:01;19.20;1.00
3566;DHT22;1797;51.844;7.684;2022-10-17T15:06:30;19.30;1.00
3566;DHT22;1797;51.844;7.684;2022-10-17T15:08:57;19.30;1.00
3566;DHT22;1797;51.844;7.684;2022-10-17T15:11:23;19.30;1.00
3566;DHT22;1797;51.844;7.684;2022-10-17T15:13:49;19.30;1.00
3566;DHT22;1797;51.844;7.684;2022-10-17T15:16:18;19.30;1.00
3566;DHT22;1797;51.844;7.684;2022-10-17T15:18:44;19.20;1.00
3566;DHT22;1797;51.844;7.684;2022-10-17T15:21:14;19.20;1.00
3566;DHT22;1797;51.844;7.684;2022-10-17T15:23:40;19.20;1.00
3566;DHT22;1797;51.844;7.684;2022-10-17T15:26:19;19.20;1.00
3566;DHT22;1797;51.844;7.684;2022-10-17T15:28:46;19.20;1.00
3566;DHT22;1797;51.844;7.684;2022-10-17T15:31:17;19.20;1.00
3566;DHT22;1797;51.844;7.684;2022-10-17T15:33:44;19.20;1.00
3566;DHT22;1797;51.844;7.684;2022-10-17T15:36:21;19.10;1.00
3566;DHT22;1797;51.844;7.684;2022-10-17T15:38:47;19.10;1.00
3566;DHT22;1797;51.844;7.684;2022-10-17T15:41:13;19.10;1.00
3566;DHT22;1797;51.844;7.684;2022-10-17T15:43:39;19.10;1.00
3566;DHT22;1797;51.844;7.684;2022-10-17T15:46:12;19.00;1.00
3566;DHT22;1797;51.844;7.684;2022-10-17T15:48:39;19.00;1.00
3566;DHT22;1797;51.844;7.684;2022-10-17T15:51:05;19.00;1.00
3566;DHT22;1797;51.844;7.684;2022-10-17T15:53:30;18.90;27.10
3566;DHT22;1797;51.844;7.684;2022-10-17T15:55:57;18.90;85.90
3566;DHT22;1797;51.844;7.684;2022-10-17T15:58:23;18.90;99.90
3566;DHT22;1797;51.844;7.684;2022-10-17T16:00:48;18.90;51.60
3566;DHT22;1797;51.844;7.684;2022-10-17T16:03:14;18.90;97.80
3566;DHT22;1797;51.844;7.684;2022-10-17T16:05:39;18.90;99.90
3566;DHT22;1797;51.844;7.684;2022-10-17T16:08:05;18.80;68.60
3566;DHT22;1797;51.844;7.684;2022-10-17T16:10:31;18.80;99.90
3566;DHT22;1797;51.844;7.684;2022-10-17T16:12:56;18.80;99.90
3566;DHT22;1797;51.844;7.684;2022-10-17T16:15:24;18.70;99.90
3566;DHT22;1797;51.844;7.684;2022-10-17T16:17:52;18.70;99.90
3566;DHT22;1797;51.844;7.684;2022-10-17T16:20:18;18.70;99.90
3566;DHT22;1797;51.844;7.684;2022-10-17T16:22:45;18.70;99.90
3566;DHT22;1797;51.844;7.684;2022-10-17T16:25:22;18.60;99.90
3566;DHT22;1797;51.844;7.684;2022-10-17T16:27:50;18.60;99.90
3566;DHT22;1797;51.844;7.684;2022-10-17T16:30:16;18.60;99.90
3566;DHT22;1797;51.844;7.684;2022-10-17T16:32:41;18.60;99.90
3566;DHT22;1797;51.844;7.684;2022-10-17T16:35:08;18.50;99.90
3566;DHT22;1797;51.844;7.684;2022-10-17T16:37:34;18.40;99.90
3566;DHT22;1797;51.844;7.684;2022-10-17T16:40:00;18.40;99.90
3566;DHT22;1797;51.844;7.684;2022-10-17T16:42:26;18.40;99.90
3566;DHT22;1797;51.844;7.684;2022-10-17T16:44:51;18.40;99.90
3566;DHT22;1797;51.844;7.684;2022-10-17T16:47:18;18.40;99.90
3566;DHT22;1797;51.844;7.684;2022-10-17T16:49:44;18.30;99.90
3566;DHT22;1797;51.844;7.684;2022-10-17T16:52:10;18.20;99.90
3566;DHT22;1797;51.844;7.684;2022-10-17T16:54:35;18.20;99.90
3566;DHT22;1797;51.844;7.684;2022-10-17T16:57:01;18.20;99.90
3566;DHT22;1797;51.844;7.684;2022-10-17T16:59:27;18.10;99.90
3566;DHT22;1797;51.844;7.684;2022-10-17T17:01:53;18.10;99.90
3566;DHT22;1797;51.844;7.684;2022-10-17T17:04:18;18.10;99.90
3566;DHT22;1797;51.844;7.684;2022-10-17T17:06:44;18.00;99.90
3566;DHT22;1797;51.844;7.684;2022-10-17T17:09:10;18.00;99.90
3566;DHT22;1797;51.844;7.684;2022-10-17T17:11:36;17.90;99.90
3566;DHT22;1797;51.844;7.684;2022-10-17T17:14:02;17.90;99.90
3566;DHT22;1797;51.844;7.684;2022-10-17T17:16:29;17.90;99.90
3566;DHT22;1797;51.844;7.684;2022-10-17T17:19:04;17.90;99.90
3566;DHT22;1797;51.844;7.684;2022-10-17T17:21:31;17.80;99.90
3566;DHT22;1797;51.844;7.684;2022-10-17T17:23:58;17.80;99.90
3566;DHT22;1797;51.844;7.684;2022-10-17T17:26:26;17.80;99.90
3566;DHT22;1797;51.844;7.684;2022-10-17T17:28:52;17.80;99.90
3566;DHT22;1797;51.844;7.684;2022-10-17T17:31:21;17.70;99.90
3566;DHT22;1797;51.844;7.684;2022-10-17T17:33:47;17.70;99.90
3566;DHT22;1797;51.844;7.684;2022-10-17T17:36:15;17.70;99.90
3566;DHT22;1797;51.844;7.684;2022-10-17T17:38:44;17.70;99.90
3566;DHT22;1797;51.844;7.684;2022-10-17T17:41:15;17.70;99.90
3566;DHT22;1797;51.844;7.684;2022-10-17T17:43:42;17.60;99.90
3566;DHT22;1797;51.844;7.684;2022-10-17T17:46:08;17.50;99.90
3566;DHT22;1797;51.844;7.684;2022-10-17T17:48:40;17.50;99.90
3566;DHT22;1797;51.844;7.684;2022-10-17T17:51:11;17.40;99.90
3566;DHT22;1797;51.844;7.684;2022-10-17T17:53:37;17.50;99.90
3566;DHT22;1797;51.844;7.684;2022-10-17T17:56:08;17.40;99.90
3566;DHT22;1797;51.844;7.684;2022-10-17T17:58:35;17.40;99.90
3566;DHT22;1797;51.844;7.684;2022-10-17T18:01:07;17.40;99.90
3566;DHT22;1797;51.844;7.684;2022-10-17T18:03:33;17.40;99.90
3566;DHT22;1797;51.844;7.684;2022-10-17T18:05:58;17.30;99.90
3566;DHT22;1797;51.844;7.684;2022-10-17T18:08:24;17.30;99.90
3566;DHT22;1797;51.844;7.684;2022-10-17T18:10:50;17.30;99.90
3566;DHT22;1797;51.844;7.684;2022-10-17T18:13:19;17.30;99.90
3566;DHT22;1797;51.844;7.684;2022-10-17T18:15:44;17.20;99.90
3566;DHT22;1797;51.844;7.684;2022-10-17T18:18:11;17.20;99.90
3566;DHT22;1797;51.844;7.684;2022-10-17T18:20:41;17.10;99.90
3566;DHT22;1797;51.844;7.684;2022-10-17T18:23:07;17.10;99.90
3566;DHT22;1797;51.844;7.684;2022-10-17T18:25:33;17.10;99.90
3566;DHT22;1797;51.844;7.684;2022-10-17T18:27:58;17.10;99.90